createdAt,value
2019-05-05T00:00:15.917Z,89.58
2019-05-05T00:01:15.923Z,89.69
2019-05-05T00:02:15.895Z,89.37
2019-05-05T00:03:15.882Z,88.75
2019-05-05T00:04:15.875Z,88.96
2019-05-05T00:05:15.866Z,89.00
2019-05-05T00:06:15.873Z,88.79
2019-05-05T00:07:15.848Z,89.21
2019-05-05T00:08:15.828Z,88.79
2019-05-05T00:09:15.836Z,89.06
2019-05-05T00:10:15.808Z,89.62
2019-05-05T00:11:15.794Z,89.73
2019-05-05T00:12:16.541Z,89.62
2019-05-05T00:13:15.779Z,89.73
2019-05-05T00:14:15.761Z,89.73
2019-05-05T00:15:15.769Z,89.73
2019-05-05T00:16:15.739Z,89.62
2019-05-05T00:17:15.758Z,89.42
2019-05-05T00:18:15.719Z,88.48
2019-05-05T00:19:29.013Z,88.90
2019-05-05T00:20:16.697Z,88.69
2019-05-05T00:21:15.686Z,88.17
2019-05-05T00:22:15.679Z,87.86
2019-05-05T00:23:15.684Z,88.28
2019-05-05T00:24:15.655Z,87.86
2019-05-05T00:25:15.643Z,88.38
2019-05-05T00:26:15.637Z,87.96
2019-05-05T00:27:15.621Z,87.90
2019-05-05T00:28:15.630Z,88.00
2019-05-05T00:29:15.600Z,87.48
2019-05-05T00:30:15.590Z,87.65
2019-05-05T00:31:15.586Z,87.45
2019-05-05T00:32:15.568Z,87.69
2019-05-05T00:33:16.546Z,87.55
2019-05-05T00:34:15.616Z,87.65
2019-05-05T00:35:15.558Z,87.65
2019-05-05T00:36:15.552Z,87.38
2019-05-05T00:37:15.517Z,87.65
2019-05-05T00:38:15.546Z,87.69
2019-05-05T00:39:15.493Z,87.55
2019-05-05T00:40:15.489Z,87.55
2019-05-05T00:41:15.471Z,87.76
2019-05-05T00:42:15.641Z,87.55
2019-05-05T00:43:15.449Z,87.59
2019-05-05T00:44:15.528Z,87.45
2019-05-05T00:45:15.428Z,87.90
2019-05-05T00:46:16.547Z,87.79
2019-05-05T00:47:15.413Z,88.00
2019-05-05T00:48:15.433Z,87.90
2019-05-05T00:49:15.414Z,88.10
2019-05-05T00:50:15.377Z,88.00
2019-05-05T00:51:15.365Z,88.42
2019-05-05T00:52:15.355Z,88.52
2019-05-05T00:53:15.344Z,88.42
2019-05-05T00:54:15.353Z,88.42
2019-05-05T00:55:15.331Z,88.10
2019-05-05T00:56:15.312Z,88.31
2019-05-05T00:57:15.300Z,88.52
2019-05-05T00:58:15.291Z,88.25
2019-05-05T00:59:15.325Z,88.87
2019-05-05T01:00:15.294Z,89.29
2019-05-05T01:01:15.259Z,89.36
2019-05-05T01:02:15.247Z,89.08
2019-05-05T01:03:15.416Z,89.18
2019-05-05T01:04:15.227Z,88.31
2019-05-05T01:05:15.235Z,88.77
2019-05-05T01:06:15.206Z,88.46
2019-05-05T01:07:15.200Z,88.46
2019-05-05T01:08:15.183Z,88.35
2019-05-05T01:09:15.180Z,88.04
2019-05-05T01:10:15.183Z,89.18
2019-05-05T01:11:15.153Z,89.29
2019-05-05T01:12:15.142Z,89.18
2019-05-05T01:13:15.256Z,89.50
2019-05-05T01:14:15.120Z,89.81
2019-05-05T01:15:15.169Z,89.50
2019-05-05T01:16:15.321Z,89.18
2019-05-05T01:17:15.089Z,88.87
2019-05-05T01:18:15.307Z,88.67
2019-05-05T01:19:15.073Z,88.98
2019-05-05T01:20:15.082Z,88.67
2019-05-05T01:21:15.182Z,88.46
2019-05-05T01:22:15.038Z,88.67
2019-05-05T01:23:15.160Z,88.87
2019-05-05T01:24:15.016Z,88.98
2019-05-05T01:25:15.022Z,88.25
2019-05-05T01:26:15.015Z,88.25
2019-05-05T01:27:14.986Z,88.77
2019-05-05T01:28:14.982Z,88.15
2019-05-05T01:29:14.974Z,88.10
2019-05-05T01:30:15.196Z,88.21
2019-05-05T01:31:14.989Z,87.63
2019-05-05T01:32:15.295Z,87.63
2019-05-05T01:33:14.926Z,87.94
2019-05-05T01:34:15.228Z,88.77
2019-05-05T01:35:14.902Z,89.29
2019-05-05T01:36:15.000Z,88.35
2019-05-05T01:37:15.217Z,88.56
2019-05-05T01:38:14.879Z,87.73
2019-05-05T01:39:14.866Z,87.98
2019-05-05T01:40:14.850Z,88.35
2019-05-05T01:41:14.863Z,88.25
2019-05-05T01:42:14.853Z,88.15
2019-05-05T01:43:14.822Z,88.35
2019-05-05T01:44:15.302Z,88.35
2019-05-05T01:45:15.019Z,88.71
2019-05-05T01:46:14.793Z,88.46
2019-05-05T01:47:14.974Z,88.60
2019-05-05T01:48:14.770Z,89.02
2019-05-05T01:49:14.763Z,89.43
2019-05-05T01:50:20.727Z,89.75
2019-05-05T01:51:15.736Z,89.85
2019-05-05T01:52:15.068Z,89.54
2019-05-05T01:53:15.303Z,89.85
2019-05-05T01:54:14.704Z,89.43
2019-05-05T01:55:14.787Z,89.33
2019-05-05T01:56:15.461Z,89.95
2019-05-05T01:57:14.985Z,90.58
2019-05-05T01:58:15.283Z,90.79
2019-05-05T01:59:14.649Z,90.37
2019-05-05T02:00:14.901Z,90.69
2019-05-05T02:01:15.298Z,90.58
2019-05-05T02:02:14.838Z,89.95
2019-05-05T02:03:14.785Z,90.06
2019-05-05T02:04:14.595Z,89.75
2019-05-05T02:05:14.849Z,89.23
2019-05-05T02:06:14.580Z,90.06
2019-05-05T02:07:14.727Z,90.37
2019-05-05T02:08:15.325Z,90.47
2019-05-05T02:09:15.940Z,89.95
2019-05-05T02:10:15.221Z,89.54
2019-05-05T02:11:15.661Z,89.64
2019-05-05T02:12:15.811Z,90.47
2019-05-05T02:13:16.076Z,90.58
2019-05-05T02:14:15.604Z,90.37
2019-05-05T02:15:15.046Z,90.69
2019-05-05T02:16:15.068Z,90.06
2019-05-05T02:17:14.581Z,89.23
2019-05-05T02:18:14.963Z,89.23
2019-05-05T02:19:14.457Z,89.23
2019-05-05T02:20:15.765Z,89.75
2019-05-05T02:21:15.426Z,89.75
2019-05-05T02:22:14.814Z,89.54
2019-05-05T02:23:15.116Z,89.33
2019-05-05T02:24:14.601Z,89.23
2019-05-05T02:25:14.608Z,89.43
2019-05-05T02:26:15.311Z,89.23
2019-05-05T02:27:14.643Z,89.64
2019-05-05T02:28:15.056Z,89.54
2019-05-05T02:29:14.356Z,88.50
2019-05-05T02:30:16.238Z,89.54
2019-05-05T02:31:16.694Z,89.43
2019-05-05T02:32:15.724Z,89.23
2019-05-05T02:33:15.733Z,89.23
2019-05-05T02:34:16.472Z,89.12
2019-05-05T02:35:16.348Z,88.71
2019-05-05T02:36:15.929Z,88.29
2019-05-05T02:37:16.005Z,88.60
2019-05-05T02:38:15.717Z,88.50
2019-05-05T02:39:16.032Z,88.50
2019-05-05T02:40:15.878Z,89.43
2019-05-05T02:41:15.492Z,89.23
2019-05-05T02:42:14.747Z,89.23
2019-05-05T02:43:15.045Z,89.33
2019-05-05T02:44:15.514Z,89.43
2019-05-05T02:45:15.542Z,88.60
2019-05-05T02:46:14.447Z,89.12
2019-05-05T02:47:15.460Z,89.12
2019-05-05T02:48:15.232Z,89.12
2019-05-05T02:49:15.149Z,88.92
2019-05-05T02:50:15.593Z,88.81
2019-05-05T02:51:15.127Z,87.81
2019-05-05T02:52:15.078Z,87.66
2019-05-05T02:53:14.341Z,87.71
2019-05-05T02:54:14.090Z,88.02
2019-05-05T02:55:14.664Z,88.23
2019-05-05T02:56:14.631Z,88.75
2019-05-05T02:57:14.057Z,89.17
2019-05-05T02:58:14.084Z,89.58
2019-05-05T02:59:14.680Z,89.58
2019-05-05T03:00:14.579Z,90.10
2019-05-05T03:01:14.086Z,90.41
2019-05-05T03:02:14.551Z,90.41
2019-05-05T03:03:13.987Z,90.00
2019-05-05T03:04:14.251Z,89.89
2019-05-05T03:05:14.318Z,89.48
2019-05-05T03:06:14.530Z,89.37
2019-05-05T03:07:13.944Z,88.96
2019-05-05T03:08:13.984Z,88.60
2019-05-05T03:09:13.941Z,89.27
2019-05-05T03:10:14.173Z,90.00
2019-05-05T03:11:14.466Z,90.83
2019-05-05T03:12:14.927Z,90.41
2019-05-05T03:13:13.994Z,90.52
2019-05-05T03:14:14.369Z,90.00
2019-05-05T03:15:14.327Z,90.10
2019-05-05T03:16:14.254Z,89.79
2019-05-05T03:17:14.474Z,90.10
2019-05-05T03:18:13.827Z,90.52
2019-05-05T03:19:14.334Z,90.62
2019-05-05T03:20:14.565Z,90.41
2019-05-05T03:21:14.064Z,89.79
2019-05-05T03:22:14.324Z,90.00
2019-05-05T03:23:13.785Z,90.62
2019-05-05T03:24:14.366Z,90.37
2019-05-05T03:25:13.775Z,90.52
2019-05-05T03:26:14.156Z,90.16
2019-05-05T03:27:14.317Z,90.72
2019-05-05T03:28:13.802Z,90.20
2019-05-05T03:29:13.909Z,89.89
2019-05-05T03:30:15.424Z,90.93
2019-05-05T03:31:15.883Z,91.14
2019-05-05T03:32:16.171Z,90.62
2019-05-05T03:33:16.033Z,90.20
2019-05-05T03:34:16.449Z,90.62
2019-05-05T03:35:13.667Z,91.56
2019-05-05T03:36:14.082Z,91.56
2019-05-05T03:37:14.620Z,92.08
2019-05-05T03:38:14.218Z,91.52
2019-05-05T03:39:14.412Z,91.56
2019-05-05T03:40:14.817Z,91.87
2019-05-05T03:41:13.667Z,91.35
2019-05-05T03:42:14.005Z,91.35
2019-05-05T03:43:14.531Z,91.97
2019-05-05T03:44:14.126Z,92.91
2019-05-05T03:45:14.518Z,91.97
2019-05-05T03:46:13.617Z,91.56
2019-05-05T03:47:14.043Z,91.77
2019-05-05T03:48:13.672Z,91.56
2019-05-05T03:49:14.146Z,91.56
2019-05-05T03:50:14.441Z,91.52
2019-05-05T03:51:18.905Z,91.97
2019-05-05T03:52:14.473Z,91.31
2019-05-05T03:53:13.978Z,91.97
2019-05-05T03:54:14.599Z,91.93
2019-05-05T03:55:13.869Z,91.93
2019-05-05T03:56:14.057Z,92.08
2019-05-05T03:57:14.092Z,91.72
2019-05-05T03:58:14.641Z,91.46
2019-05-05T03:59:14.080Z,92.80
2019-05-05T04:00:14.270Z,92.14
2019-05-05T04:01:14.539Z,91.87
2019-05-05T04:02:14.147Z,92.08
2019-05-05T04:03:14.676Z,91.97
2019-05-05T04:04:13.894Z,91.66
2019-05-05T04:05:14.548Z,91.46
2019-05-05T04:06:14.649Z,91.77
2019-05-05T04:07:13.968Z,91.77
2019-05-05T04:08:14.505Z,91.56
2019-05-05T04:09:13.777Z,91.56
2019-05-05T04:10:14.019Z,91.46
2019-05-05T04:11:14.359Z,91.97
2019-05-05T04:12:13.805Z,92.18
2019-05-05T04:13:13.932Z,91.66
2019-05-05T04:14:14.210Z,91.66
2019-05-05T04:15:14.217Z,91.35
2019-05-05T04:16:13.685Z,91.66
2019-05-05T04:17:14.152Z,91.66
2019-05-05T04:18:14.597Z,91.97
2019-05-05T04:19:13.871Z,92.29
2019-05-05T04:20:13.748Z,92.39
2019-05-05T04:21:14.518Z,91.77
2019-05-05T04:22:13.623Z,92.08
2019-05-05T04:23:14.184Z,92.80
2019-05-05T04:24:14.534Z,92.35
2019-05-05T04:25:13.928Z,92.24
2019-05-05T04:26:14.260Z,92.55
2019-05-05T04:27:14.627Z,92.45
2019-05-05T04:28:13.690Z,92.55
2019-05-05T04:29:13.932Z,93.07
2019-05-05T04:30:14.244Z,93.39
2019-05-05T04:31:13.613Z,93.49
2019-05-05T04:32:14.096Z,94.12
2019-05-05T04:33:14.204Z,93.80
2019-05-05T04:34:13.540Z,93.29
2019-05-05T04:35:14.027Z,92.76
2019-05-05T04:36:14.434Z,93.66
2019-05-05T04:37:14.930Z,93.35
2019-05-05T04:38:13.895Z,92.24
2019-05-05T04:39:14.401Z,93.24
2019-05-05T04:40:14.833Z,94.07
2019-05-05T04:41:14.030Z,93.66
2019-05-05T04:42:14.056Z,93.87
2019-05-05T04:43:14.266Z,93.93
2019-05-05T04:44:14.545Z,93.24
2019-05-05T04:45:14.834Z,93.87
2019-05-05T04:46:13.988Z,94.38
2019-05-05T04:47:14.523Z,93.35
2019-05-05T04:48:13.766Z,93.10
2019-05-05T04:49:14.017Z,93.62
2019-05-05T04:50:14.910Z,93.93
2019-05-05T04:51:13.891Z,93.93
2019-05-05T04:52:14.294Z,92.36
2019-05-05T04:53:13.561Z,91.85
2019-05-05T04:54:14.183Z,92.99
2019-05-05T04:55:13.864Z,93.51
2019-05-05T04:56:14.137Z,93.99
2019-05-05T04:57:14.837Z,92.88
2019-05-05T04:58:13.653Z,92.53
2019-05-05T04:59:14.424Z,92.43
2019-05-05T05:00:13.785Z,92.63
2019-05-05T05:01:13.597Z,93.16
2019-05-05T05:02:14.423Z,93.57
2019-05-05T05:03:13.440Z,93.32
2019-05-05T05:04:13.796Z,92.94
2019-05-05T05:05:14.478Z,93.05
2019-05-05T05:06:14.519Z,92.69
2019-05-05T05:07:13.599Z,92.11
2019-05-05T05:08:13.920Z,91.91
2019-05-05T05:09:14.529Z,92.49
2019-05-05T05:10:13.878Z,91.45
2019-05-05T05:11:14.157Z,91.03
2019-05-05T05:12:14.493Z,91.45
2019-05-05T05:13:13.862Z,91.97
2019-05-05T05:14:14.359Z,92.59
2019-05-05T05:15:14.587Z,91.86
2019-05-05T05:16:13.875Z,92.28
2019-05-05T05:17:14.068Z,92.59
2019-05-05T05:18:14.562Z,92.38
2019-05-05T05:19:13.731Z,92.38
2019-05-05T05:20:14.125Z,92.69
2019-05-05T05:21:14.452Z,92.49
2019-05-05T05:22:13.658Z,92.49
2019-05-05T05:23:14.147Z,92.03
2019-05-05T05:24:14.493Z,92.59
2019-05-05T05:25:13.629Z,91.66
2019-05-05T05:26:13.903Z,90.79
2019-05-05T05:27:13.888Z,91.52
2019-05-05T05:28:14.336Z,92.76
2019-05-05T05:29:12.444Z,93.80
2019-05-05T05:30:13.753Z,93.90
2019-05-05T05:31:14.075Z,92.97
2019-05-05T05:32:12.416Z,92.35
2019-05-05T05:33:14.750Z,91.93
2019-05-05T05:34:14.654Z,92.03
2019-05-05T05:35:14.112Z,92.61
2019-05-05T05:36:14.456Z,91.78
2019-05-05T05:37:13.485Z,93.75
2019-05-05T05:38:14.031Z,93.85
2019-05-05T05:39:13.989Z,94.17
2019-05-05T05:40:14.325Z,91.78
2019-05-05T05:41:13.662Z,91.68
2019-05-05T05:42:13.748Z,92.24
2019-05-05T05:43:13.926Z,93.23
2019-05-05T05:44:14.037Z,92.41
2019-05-05T05:45:14.448Z,91.16
2019-05-05T05:46:13.620Z,92.51
2019-05-05T05:47:14.038Z,91.37
2019-05-05T05:48:14.245Z,91.37
2019-05-05T05:49:13.550Z,92.51
2019-05-05T05:50:14.202Z,90.75
2019-05-05T05:51:12.226Z,89.40
2019-05-05T05:52:18.534Z,91.64
2019-05-05T05:53:14.009Z,91.85
2019-05-05T05:54:14.092Z,92.05
2019-05-05T05:55:14.020Z,91.12
2019-05-05T05:56:13.490Z,91.12
2019-05-05T05:57:13.608Z,92.26
2019-05-05T05:58:14.056Z,92.16
2019-05-05T05:59:14.011Z,91.64
2019-05-05T06:00:14.360Z,90.19
2019-05-05T06:01:12.134Z,91.22
2019-05-05T06:02:14.847Z,91.85
2019-05-05T06:03:13.922Z,91.22
2019-05-05T06:04:12.060Z,91.43
2019-05-05T06:05:12.056Z,92.57
2019-05-05T06:06:13.846Z,90.39
2019-05-05T06:07:14.078Z,91.22
2019-05-05T06:08:13.920Z,91.12
2019-05-05T06:09:12.014Z,91.18
2019-05-05T06:10:22.132Z,91.22
2019-05-05T06:11:13.647Z,91.08
2019-05-05T06:12:13.981Z,91.49
2019-05-05T06:13:14.903Z,92.26
2019-05-05T06:14:11.952Z,92.22
2019-05-05T06:15:14.114Z,92.01
2019-05-05T06:16:11.981Z,91.60
2019-05-05T06:17:13.535Z,91.80
2019-05-05T06:18:13.746Z,91.28
2019-05-05T06:19:13.959Z,91.28
2019-05-05T06:20:11.887Z,91.18
2019-05-05T06:21:13.744Z,90.56
2019-05-05T06:22:13.916Z,90.97
2019-05-05T06:23:14.679Z,90.66
2019-05-05T06:24:13.624Z,91.49
2019-05-05T06:25:15.531Z,91.08
2019-05-05T06:26:14.882Z,91.60
2019-05-05T06:27:14.099Z,91.28
2019-05-05T06:28:11.803Z,91.70
2019-05-05T06:29:11.789Z,91.18
2019-05-05T06:30:13.683Z,92.01
2019-05-05T06:31:13.879Z,91.18
2019-05-05T06:32:11.757Z,91.08
2019-05-05T06:33:13.690Z,90.97
2019-05-05T06:34:13.855Z,90.87
2019-05-05T06:35:13.724Z,90.45
2019-05-05T06:36:11.730Z,90.66
2019-05-05T06:37:11.700Z,90.14
2019-05-05T06:38:13.543Z,91.35
2019-05-05T06:39:13.539Z,91.66
2019-05-05T06:40:11.674Z,92.07
2019-05-05T06:41:11.683Z,92.28
2019-05-05T06:42:13.558Z,91.76
2019-05-05T06:43:13.483Z,92.38
2019-05-05T06:44:11.623Z,92.28
2019-05-05T06:45:11.612Z,92.18
2019-05-05T06:46:11.603Z,90.83
2019-05-05T06:47:13.361Z,91.61
2019-05-05T06:48:13.447Z,91.24
2019-05-05T06:49:13.554Z,91.93
2019-05-05T06:50:11.558Z,91.09
2019-05-05T06:51:11.548Z,91.20
2019-05-05T06:52:11.561Z,92.03
2019-05-05T06:53:13.123Z,90.89
2019-05-05T06:54:13.614Z,90.58
2019-05-05T06:55:11.505Z,91.16
2019-05-05T06:56:11.491Z,91.36
2019-05-05T06:57:13.511Z,91.05
2019-05-05T06:58:13.563Z,91.16
2019-05-05T06:59:13.585Z,90.64
2019-05-05T07:00:11.447Z,91.26
2019-05-05T07:01:11.485Z,89.50
2019-05-05T07:02:11.462Z,89.46
2019-05-05T07:03:13.749Z,90.60
2019-05-05T07:04:11.411Z,92.25
2019-05-05T07:05:11.391Z,91.22
2019-05-05T07:06:11.382Z,90.35
2019-05-05T07:07:11.394Z,89.04
2019-05-05T07:08:13.773Z,90.19
2019-05-05T07:09:13.892Z,89.87
2019-05-05T07:10:11.340Z,89.36
2019-05-05T07:11:11.371Z,89.83
2019-05-05T07:12:13.646Z,91.49
2019-05-05T07:13:11.345Z,91.38
2019-05-05T07:14:11.302Z,91.28
2019-05-05T07:15:11.283Z,90.35
2019-05-05T07:16:12.827Z,91.38
2019-05-05T07:17:11.263Z,89.73
2019-05-05T07:18:11.250Z,89.94
2019-05-05T07:19:11.259Z,90.97
2019-05-05T07:20:13.438Z,91.17
2019-05-05T07:21:11.220Z,88.90
2019-05-05T07:22:11.206Z,90.25
2019-05-05T07:23:11.196Z,92.11
2019-05-05T07:24:11.206Z,90.93
2019-05-05T07:25:11.179Z,90.20
2019-05-05T07:26:11.166Z,90.97
2019-05-05T07:27:11.152Z,91.03
2019-05-05T07:28:11.147Z,91.13
2019-05-05T07:29:11.149Z,91.13
2019-05-05T07:30:11.122Z,90.83
2019-05-05T07:31:11.120Z,89.07
2019-05-05T07:32:11.101Z,87.73
2019-05-05T07:33:11.087Z,89.89
2019-05-05T07:34:11.102Z,90.58
2019-05-05T07:35:11.072Z,92.23
2019-05-05T07:36:11.056Z,90.31
2019-05-05T07:37:11.048Z,89.95
2019-05-05T07:38:11.036Z,89.34
2019-05-05T07:39:11.026Z,89.75
2019-05-05T07:40:11.036Z,90.33
2019-05-05T07:41:11.013Z,88.89
2019-05-05T07:42:10.996Z,87.34
2019-05-05T07:43:10.982Z,88.64
2019-05-05T07:44:25.043Z,85.54
2019-05-05T07:45:20.388Z,89.83
2019-05-05T07:46:13.577Z,89.94
2019-05-05T07:47:10.939Z,89.07
2019-05-05T07:48:10.935Z,87.66
2019-05-05T07:49:10.925Z,89.69
2019-05-05T07:50:25.526Z,88.31
2019-05-05T07:51:13.966Z,87.01
2019-05-05T07:52:10.934Z,87.99
2019-05-05T07:53:14.897Z,84.70
2019-05-05T07:54:11.863Z,86.87
2019-05-05T07:55:10.880Z,85.11
2019-05-05T07:56:10.849Z,86.97
2019-05-05T07:57:10.840Z,85.63
2019-05-05T07:58:10.821Z,86.04
2019-05-05T07:59:10.812Z,85.31
2019-05-05T08:00:10.847Z,85.31
2019-05-05T08:01:10.792Z,84.19
2019-05-05T08:02:10.782Z,85.42
2019-05-05T08:03:10.771Z,85.73
2019-05-05T08:04:10.762Z,86.97
2019-05-05T08:05:10.747Z,87.17
2019-05-05T08:06:10.755Z,85.79
2019-05-05T08:07:10.726Z,85.89
2019-05-05T08:08:10.722Z,85.69
2019-05-05T08:09:10.705Z,84.97
2019-05-05T08:10:10.694Z,85.44
2019-05-05T08:11:10.706Z,84.42
2019-05-05T08:12:10.682Z,84.11
2019-05-05T08:13:10.665Z,85.34
2019-05-05T08:14:10.656Z,85.30
2019-05-05T08:15:10.659Z,84.79
2019-05-05T08:16:10.634Z,85.61
2019-05-05T08:17:10.647Z,85.10
2019-05-05T08:18:10.615Z,83.86
2019-05-05T08:19:10.599Z,81.70
2019-05-05T08:20:10.586Z,83.55
2019-05-05T08:21:10.583Z,83.62
2019-05-05T08:22:10.602Z,83.00
2019-05-05T08:23:10.555Z,84.64
2019-05-05T08:24:10.542Z,84.30
2019-05-05T08:25:10.541Z,83.68
2019-05-05T08:26:10.523Z,82.86
2019-05-05T08:27:10.513Z,81.62
2019-05-05T08:28:10.522Z,82.96
2019-05-05T08:29:10.490Z,83.17
2019-05-05T08:30:10.480Z,83.37
2019-05-05T08:31:10.468Z,84.77
2019-05-05T08:32:10.458Z,80.66
2019-05-05T08:33:10.466Z,78.92
2019-05-05T08:34:10.440Z,81.59
2019-05-05T08:35:10.428Z,79.22
2019-05-05T08:36:10.423Z,80.25
2019-05-05T08:37:10.412Z,78.47
2019-05-05T08:38:10.414Z,79.08
2019-05-05T08:39:10.382Z,80.11
2019-05-05T08:40:10.373Z,80.73
2019-05-05T08:41:10.372Z,82.64
2019-05-05T08:42:10.353Z,79.25
2019-05-05T08:43:10.370Z,78.85
2019-05-05T08:44:10.328Z,76.48
2019-05-05T08:45:10.319Z,75.15
2019-05-05T08:46:10.307Z,75.56
2019-05-05T08:47:10.305Z,74.84
2019-05-05T08:48:10.313Z,75.45
2019-05-05T08:49:10.298Z,75.66
2019-05-05T08:50:10.266Z,77.47
2019-05-05T08:51:10.254Z,76.55
2019-05-05T08:52:10.245Z,75.38
2019-05-05T08:53:10.238Z,73.33
2019-05-05T08:54:10.245Z,73.74
2019-05-05T08:55:10.226Z,75.08
2019-05-05T08:56:10.201Z,75.18
2019-05-05T08:57:10.188Z,74.15
2019-05-05T08:58:10.182Z,71.35
2019-05-05T08:59:10.190Z,72.58
2019-05-05T09:00:10.159Z,74.02
2019-05-05T09:01:10.186Z,74.22
2019-05-05T09:02:10.137Z,70.22
2019-05-05T09:03:10.124Z,71.86
2019-05-05T09:04:10.141Z,71.25
2019-05-05T09:05:10.134Z,70.77
2019-05-05T09:06:10.092Z,70.67
2019-05-05T09:07:10.084Z,70.87
2019-05-05T09:08:10.075Z,71.80
2019-05-05T09:09:10.064Z,72.72
2019-05-05T09:10:10.073Z,71.90
2019-05-05T09:11:10.039Z,71.59
2019-05-05T09:12:10.034Z,70.39
2019-05-05T09:13:10.016Z,73.13
2019-05-05T09:14:10.006Z,73.02
2019-05-05T09:15:09.994Z,72.44
2019-05-05T09:16:10.005Z,72.51
2019-05-05T09:17:09.985Z,71.90
2019-05-05T09:18:09.963Z,72.41
2019-05-05T09:19:09.951Z,69.64
2019-05-05T09:20:09.942Z,72.89
2019-05-05T09:21:09.950Z,70.29
2019-05-05T09:22:09.996Z,66.60
2019-05-05T09:23:09.911Z,66.50
2019-05-05T09:24:09.901Z,66.98
2019-05-05T09:25:09.895Z,64.62
2019-05-05T09:26:09.893Z,63.40
2019-05-05T09:27:09.870Z,64.42
2019-05-05T09:28:09.854Z,67.60
2019-05-05T09:29:09.852Z,68.62
2019-05-05T09:30:09.847Z,65.14
2019-05-05T09:31:09.848Z,65.45
2019-05-05T09:32:09.813Z,67.36
2019-05-05T09:33:09.806Z,63.98
2019-05-05T09:34:09.801Z,63.26
2019-05-05T09:35:09.797Z,62.96
2019-05-05T09:36:09.768Z,62.55
2019-05-05T09:37:09.777Z,65.24
2019-05-05T09:38:09.745Z,65.78
2019-05-05T09:39:09.736Z,66.19
2019-05-05T09:40:09.724Z,69.20
2019-05-05T09:41:09.714Z,70.77
2019-05-05T09:42:09.775Z,70.46
2019-05-05T09:43:09.692Z,71.52
2019-05-05T09:44:09.681Z,73.06
2019-05-05T09:45:09.671Z,73.06
2019-05-05T09:46:09.664Z,73.16
2019-05-05T09:47:10.265Z,74.94
2019-05-05T09:48:09.639Z,75.35
2019-05-05T09:49:09.630Z,75.56
2019-05-05T09:50:09.617Z,73.19
2019-05-05T09:51:10.295Z,73.33
2019-05-05T09:52:09.630Z,72.55
2019-05-05T09:53:09.615Z,73.64
2019-05-05T09:54:14.030Z,75.18
2019-05-05T09:55:09.563Z,75.80
2019-05-05T09:56:09.701Z,76.58
2019-05-05T09:57:09.634Z,75.25
2019-05-05T09:58:09.607Z,73.85
2019-05-05T09:59:09.525Z,74.94
2019-05-05T10:00:09.565Z,75.25
2019-05-05T10:01:09.504Z,76.14
2019-05-05T10:02:09.493Z,74.29
2019-05-05T10:03:09.478Z,74.77
2019-05-05T10:04:09.497Z,74.02
2019-05-05T10:05:09.526Z,78.63
2019-05-05T10:06:09.447Z,75.31
2019-05-05T10:07:13.717Z,76.72
2019-05-05T10:08:09.459Z,75.86
2019-05-05T10:09:09.482Z,73.78
2019-05-05T10:10:09.638Z,69.89
2019-05-05T10:11:09.392Z,71.19
2019-05-05T10:12:09.382Z,68.12
2019-05-05T10:13:09.443Z,70.16
2019-05-05T10:14:09.359Z,70.23
2019-05-05T10:15:09.746Z,67.27
2019-05-05T10:16:09.338Z,68.39
2019-05-05T10:17:09.368Z,69.79
2019-05-05T10:18:10.300Z,70.37
2019-05-05T10:19:09.398Z,68.09
2019-05-05T10:20:09.427Z,69.01
2019-05-05T10:21:09.352Z,67.07
2019-05-05T10:22:09.403Z,64.52
2019-05-05T10:23:09.270Z,65.95
2019-05-05T10:24:09.336Z,64.22
2019-05-05T10:25:09.295Z,65.44
2019-05-05T10:26:09.242Z,64.01
2019-05-05T10:27:09.253Z,64.04
2019-05-05T10:28:09.210Z,65.03
2019-05-05T10:29:09.217Z,64.01
2019-05-05T10:30:10.654Z,65.23
2019-05-05T10:31:10.175Z,62.88
2019-05-05T10:32:09.209Z,64.31
2019-05-05T10:33:09.164Z,63.83
2019-05-05T10:34:09.143Z,64.75
2019-05-05T10:35:09.150Z,65.91
2019-05-05T10:36:09.121Z,66.04
2019-05-05T10:37:09.114Z,63.79
2019-05-05T10:38:09.104Z,63.41
2019-05-05T10:39:09.089Z,66.17
2019-05-05T10:40:09.231Z,64.54
2019-05-05T10:41:09.151Z,65.08
2019-05-05T10:42:09.066Z,66.31
2019-05-05T10:43:09.125Z,69.38
2019-05-05T10:44:09.102Z,68.76
2019-05-05T10:45:09.070Z,68.05
2019-05-05T10:46:09.015Z,68.25
2019-05-05T10:47:09.072Z,68.76
2019-05-05T10:48:09.064Z,69.85
2019-05-05T10:49:09.091Z,68.32
2019-05-05T10:50:09.070Z,66.38
2019-05-05T10:51:09.007Z,68.01
2019-05-05T10:52:08.956Z,66.38
2019-05-05T10:53:08.939Z,67.19
2019-05-05T10:54:08.936Z,67.40
2019-05-05T10:55:08.922Z,66.48
2019-05-05T10:56:08.939Z,66.45
2019-05-05T10:57:08.898Z,65.70
2019-05-05T10:58:08.887Z,67.21
2019-05-05T10:59:08.886Z,64.11
2019-05-05T11:00:12.497Z,61.25
2019-05-05T11:01:09.878Z,58.42
2019-05-05T11:02:08.840Z,60.36
2019-05-05T11:03:08.831Z,60.77
2019-05-05T11:04:08.820Z,61.38
2019-05-05T11:05:08.811Z,61.49
2019-05-05T11:06:08.801Z,62.81
2019-05-05T11:07:08.806Z,61.72
2019-05-05T11:08:08.791Z,62.54
2019-05-05T11:09:08.828Z,63.07
2019-05-05T11:10:08.756Z,62.57
2019-05-05T11:11:08.754Z,63.51
2019-05-05T11:12:08.757Z,63.13
2019-05-05T11:13:08.726Z,64.26
2019-05-05T11:14:08.719Z,65.56
2019-05-05T11:15:08.709Z,64.74
2019-05-05T11:16:08.692Z,66.35
2019-05-05T11:17:08.685Z,63.56
2019-05-05T11:18:08.717Z,63.45
2019-05-05T11:19:08.668Z,63.93
2019-05-05T11:20:08.649Z,63.83
2019-05-05T11:21:08.637Z,62.99
2019-05-05T11:22:08.631Z,62.58
2019-05-05T11:23:08.621Z,62.48
2019-05-05T11:24:08.625Z,62.85
2019-05-05T11:25:08.594Z,63.64
2019-05-05T11:26:08.584Z,60.99
2019-05-05T11:27:08.574Z,61.71
2019-05-05T11:28:08.565Z,63.00
2019-05-05T11:29:08.571Z,59.53
2019-05-05T11:30:08.542Z,57.47
2019-05-05T11:31:08.530Z,59.30
2019-05-05T11:32:08.519Z,59.61
2019-05-05T11:33:08.515Z,59.48
2019-05-05T11:34:08.517Z,57.14
2019-05-05T11:35:08.488Z,57.34
2019-05-05T11:36:08.475Z,55.51
2019-05-05T11:37:08.466Z,60.70
2019-05-05T11:38:08.454Z,57.14
2019-05-05T11:39:08.466Z,56.63
2019-05-05T11:40:08.435Z,57.44
2019-05-05T11:41:08.422Z,55.81
2019-05-05T11:42:08.412Z,55.91
2019-05-05T11:43:08.404Z,58.05
2019-05-05T11:44:08.409Z,57.31
2019-05-05T11:45:08.384Z,55.48
2019-05-05T11:46:08.377Z,58.23
2019-05-05T11:47:08.358Z,59.53
2019-05-05T11:48:08.348Z,58.51
2019-05-05T11:49:08.360Z,57.29
2019-05-05T11:50:08.329Z,56.07
2019-05-05T11:51:08.320Z,56.77
2019-05-05T11:52:08.305Z,56.57
2019-05-05T11:53:08.294Z,53.42
2019-05-05T11:54:08.315Z,56.45
2019-05-05T11:55:12.046Z,55.25
2019-05-05T11:56:08.269Z,56.85
2019-05-05T11:57:08.250Z,59.73
2019-05-05T11:58:08.247Z,58.28
2019-05-05T11:59:08.248Z,56.95
2019-05-05T12:00:08.219Z,57.13
2019-05-05T12:01:08.212Z,55.71
2019-05-05T12:02:08.208Z,56.01
2019-05-05T12:03:08.195Z,55.10
2019-05-05T12:04:08.221Z,51.64
2019-05-05T12:05:08.170Z,57.23
2019-05-05T12:06:08.161Z,53.06
2019-05-05T12:07:08.154Z,54.69
2019-05-05T12:08:08.132Z,53.50
2019-05-05T12:09:08.125Z,51.79
2019-05-05T12:10:08.131Z,53.32
2019-05-05T12:11:08.103Z,53.02
2019-05-05T12:12:08.095Z,53.96
2019-05-05T12:13:08.079Z,53.04
2019-05-05T12:14:08.071Z,53.06
2019-05-05T12:15:08.076Z,53.29
2019-05-05T12:16:08.053Z,55.94
2019-05-05T12:17:08.034Z,56.96
2019-05-05T12:18:08.027Z,53.70
2019-05-05T12:19:08.014Z,55.76
2019-05-05T12:20:08.034Z,59.30
2019-05-05T12:21:07.994Z,56.24
2019-05-05T12:22:07.982Z,54.51
2019-05-05T12:23:07.971Z,54.51
2019-05-05T12:24:07.972Z,55.02
2019-05-05T12:25:07.972Z,58.41
2019-05-05T12:26:07.939Z,55.74
2019-05-05T12:27:07.927Z,59.30
2019-05-05T12:28:07.920Z,55.41
2019-05-05T12:29:07.907Z,55.51
2019-05-05T12:30:07.916Z,53.85
2019-05-05T12:31:07.885Z,52.53
2019-05-05T12:32:07.875Z,52.94
2019-05-05T12:33:07.865Z,53.34
2019-05-05T12:34:07.860Z,57.01
2019-05-05T12:35:07.864Z,55.86
2019-05-05T12:36:07.832Z,55.76
2019-05-05T12:37:07.820Z,53.72
2019-05-05T12:38:07.809Z,53.11
2019-05-05T12:39:07.814Z,49.25
2019-05-05T12:40:07.807Z,51.59
2019-05-05T12:41:07.778Z,49.27
2019-05-05T12:42:07.781Z,51.81
2019-05-05T12:43:07.757Z,50.80
2019-05-05T12:44:07.746Z,50.09
2019-05-05T12:45:07.759Z,52.73
2019-05-05T12:46:07.724Z,53.27
2019-05-05T12:47:07.713Z,49.80
2019-05-05T12:48:07.709Z,53.47
2019-05-05T12:49:07.705Z,53.80
2019-05-05T12:50:07.704Z,53.70
2019-05-05T12:51:07.674Z,54.67
2019-05-05T12:52:07.660Z,56.30